sensor_id;sensor_type;location;lat;lon;timestamp;temperature;humidity
34095;DHT22;20372;47.080;15.410;2023-05-19T00:01:34;11.60;99.90
34095;DHT22;20372;47.080;15.410;2023-05-19T00:04:01;11.60;99.90
34095;DHT22;20372;47.080;15.410;2023-05-19T00:06:29;11.60;99.90
34095;DHT22;20372;47.080;15.410;2023-05-19T00:09:04;11.70;99.90
34095;DHT22;20372;47.080;15.410;2023-05-19T00:11:32;11.80;99.90
34095;DHT22;20372;47.080;15.410;2023-05-19T00:14:01;11.60;99.90
34095;DHT22;20372;47.080;15.410;2023-05-19T00:16:27;11.50;99.90
34095;DHT22;20372;47.080;15.410;2023-05-19T00:18:53;11.60;99.90
34095;DHT22;20372;47.080;15.410;2023-05-19T00:21:19;11.60;99.90
34095;DHT22;20372;47.080;15.410;2023-05-19T00:23:45;11.60;99.90
34095;DHT22;20372;47.080;15.410;2023-05-19T00:26:10;11.60;99.90
34095;DHT22;20372;47.080;15.410;2023-05-19T00:28:36;11.60;99.90
34095;DHT22;20372;47.080;15.410;2023-05-19T00:31:03;11.50;99.90
34095;DHT22;20372;47.080;15.410;2023-05-19T00:33:29;11.50;99.90
34095;DHT22;20372;47.080;15.410;2023-05-19T00:35:55;11.40;99.90
34095;DHT22;20372;47.080;15.410;2023-05-19T00:38:20;11.40;99.90
34095;DHT22;20372;47.080;15.410;2023-05-19T00:40:46;11.40;99.90
34095;DHT22;20372;47.080;15.410;2023-05-19T00:43:11;11.40;99.90
34095;DHT22;20372;47.080;15.410;2023-05-19T00:45:37;11.40;99.90
34095;DHT22;20372;47.080;15.410;2023-05-19T00:48:03;11.40;99.90
34095;DHT22;20372;47.080;15.410;2023-05-19T00:50:28;11.40;99.90
34095;DHT22;20372;47.080;15.410;2023-05-19T00:52:54;11.40;99.90
34095;DHT22;20372;47.080;15.410;2023-05-19T00:55:25;11.30;99.90
34095;DHT22;20372;47.080;15.410;2023-05-19T00:57:52;11.30;99.90
34095;DHT22;20372;47.080;15.410;2023-05-19T01:00:18;11.30;99.90
34095;DHT22;20372;47.080;15.410;2023-05-19T01:02:44;11.30;99.90
34095;DHT22;20372;47.080;15.410;2023-05-19T01:05:09;11.30;99.90
34095;DHT22;20372;47.080;15.410;2023-05-19T01:07:36;11.30;99.90
34095;DHT22;20372;47.080;15.410;2023-05-19T01:10:02;11.30;99.90
34095;DHT22;20372;47.080;15.410;2023-05-19T01:12:28;11.30;99.90
34095;DHT22;20372;47.080;15.410;2023-05-19T01:14:54;11.30;99.90
34095;DHT22;20372;47.080;15.410;2023-05-19T01:20:15;11.30;99.90
34095;DHT22;20372;47.080;15.410;2023-05-19T01:23:02;11.30;99.90
34095;DHT22;20372;47.080;15.410;2023-05-19T01:28:25;11.40;99.90
34095;DHT22;20372;47.080;15.410;2023-05-19T01:30:55;11.40;99.90
34095;DHT22;20372;47.080;15.410;2023-05-19T01:33:23;11.50;99.90
34095;DHT22;20372;47.080;15.410;2023-05-19T01:35:49;11.50;99.90
34095;DHT22;20372;47.080;15.410;2023-05-19T01:38:16;11.40;99.90
34095;DHT22;20372;47.080;15.410;2023-05-19T01:40:42;11.30;99.90
34095;DHT22;20372;47.080;15.410;2023-05-19T01:43:09;11.30;99.90
34095;DHT22;20372;47.080;15.410;2023-05-19T01:45:36;11.40;99.90
34095;DHT22;20372;47.080;15.410;2023-05-19T01:48:02;11.40;99.90
34095;DHT22;20372;47.080;15.410;2023-05-19T01:50:28;11.40;99.90
34095;DHT22;20372;47.080;15.410;2023-05-19T01:52:54;11.40;99.90
34095;DHT22;20372;47.080;15.410;2023-05-19T01:55:20;11.40;99.90
34095;DHT22;20372;47.080;15.410;2023-05-19T02:08:42;11.40;99.90
34095;DHT22;20372;47.080;15.410;2023-05-19T02:11:17;11.30;99.90
34095;DHT22;20372;47.080;15.410;2023-05-19T02:13:43;11.30;99.90
34095;DHT22;20372;47.080;15.410;2023-05-19T02:16:12;11.30;99.90
34095;DHT22;20372;47.080;15.410;2023-05-19T02:18:39;11.30;99.90
34095;DHT22;20372;47.080;15.410;2023-05-19T02:21:10;11.30;99.90
34095;DHT22;20372;47.080;15.410;2023-05-19T02:23:40;11.30;99.90
34095;DHT22;20372;47.080;15.410;2023-05-19T02:26:06;11.30;99.90
34095;DHT22;20372;47.080;15.410;2023-05-19T02:28:33;11.30;99.90
34095;DHT22;20372;47.080;15.410;2023-05-19T02:30:59;11.30;99.90
34095;DHT22;20372;47.080;15.410;2023-05-19T02:33:25;11.30;99.90
34095;DHT22;20372;47.080;15.410;2023-05-19T02:35:51;11.30;99.90
34095;DHT22;20372;47.080;15.410;2023-05-19T02:38:17;11.30;99.90
34095;DHT22;20372;47.080;15.410;2023-05-19T02:40:43;11.30;99.90
34095;DHT22;20372;47.080;15.410;2023-05-19T02:43:08;11.30;99.90
34095;DHT22;20372;47.080;15.410;2023-05-19T02:45:34;11.30;99.90
34095;DHT22;20372;47.080;15.410;2023-05-19T02:48:00;11.30;99.90
34095;DHT22;20372;47.080;15.410;2023-05-19T02:50:26;11.30;99.90
34095;DHT22;20372;47.080;15.410;2023-05-19T02:52:51;11.30;99.90
34095;DHT22;20372;47.080;15.410;2023-05-19T02:55:18;11.30;99.90
34095;DHT22;20372;47.080;15.410;2023-05-19T02:57:43;11.20;99.90
34095;DHT22;20372;47.080;15.410;2023-05-19T03:00:09;11.10;99.90
34095;DHT22;20372;47.080;15.410;2023-05-19T03:02:35;11.00;99.90
34095;DHT22;20372;47.080;15.410;2023-05-19T03:05:00;11.00;99.90
34095;DHT22;20372;47.080;15.410;2023-05-19T03:07:28;10.90;99.90
34095;DHT22;20372;47.080;15.410;2023-05-19T03:09:53;10.90;99.90
34095;DHT22;20372;47.080;15.410;2023-05-19T03:12:19;10.90;99.90
34095;DHT22;20372;47.080;15.410;2023-05-19T03:14:46;10.90;99.90
34095;DHT22;20372;47.080;15.410;2023-05-19T03:17:11;10.90;99.90
34095;DHT22;20372;47.080;15.410;2023-05-19T03:19:37;10.90;99.90
34095;DHT22;20372;47.080;15.410;2023-05-19T03:22:03;11.00;99.90
34095;DHT22;20372;47.080;15.410;2023-05-19T03:24:29;11.10;99.90
34095;DHT22;20372;47.080;15.410;2023-05-19T03:26:54;11.10;99.90
34095;DHT22;20372;47.080;15.410;2023-05-19T03:29:20;11.10;99.90
34095;DHT22;20372;47.080;15.410;2023-05-19T03:31:46;11.00;99.90
34095;DHT22;20372;47.080;15.410;2023-05-19T03:34:11;10.80;99.90
34095;DHT22;20372;47.080;15.410;2023-05-19T03:36:37;10.90;99.90
34095;DHT22;20372;47.080;15.410;2023-05-19T03:39:05;11.00;99.90
34095;DHT22;20372;47.080;15.410;2023-05-19T03:41:31;11.10;99.90
34095;DHT22;20372;47.080;15.410;2023-05-19T03:43:57;11.10;99.90
34095;DHT22;20372;47.080;15.410;2023-05-19T03:46:22;11.20;99.90
34095;DHT22;20372;47.080;15.410;2023-05-19T03:48:48;11.30;99.90
34095;DHT22;20372;47.080;15.410;2023-05-19T03:51:13;11.20;99.90
34095;DHT22;20372;47.080;15.410;2023-05-19T03:53:39;11.30;99.90
34095;DHT22;20372;47.080;15.410;2023-05-19T03:56:05;11.20;99.90
34095;DHT22;20372;47.080;15.410;2023-05-19T03:58:32;11.30;99.90
34095;DHT22;20372;47.080;15.410;2023-05-19T04:00:58;11.30;99.90
34095;DHT22;20372;47.080;15.410;2023-05-19T04:03:24;11.30;99.90
34095;DHT22;20372;47.080;15.410;2023-05-19T04:05:50;11.30;99.90
34095;DHT22;20372;47.080;15.410;2023-05-19T04:08:16;11.30;99.90
34095;DHT22;20372;47.080;15.410;2023-05-19T04:10:42;11.30;99.90
34095;DHT22;20372;47.080;15.410;2023-05-19T04:13:07;11.30;99.90
34095;DHT22;20372;47.080;15.410;2023-05-19T04:15:33;11.30;99.90
34095;DHT22;20372;47.080;15.410;2023-05-19T04:17:59;11.40;99.90
34095;DHT22;20372;47.080;15.410;2023-05-19T04:20:24;11.40;99.90
34095;DHT22;20372;47.080;15.410;2023-05-19T04:22:50;11.40;99.90
34095;DHT22;20372;47.080;15.410;2023-05-19T04:25:15;11.40;99.90
34095;DHT22;20372;47.080;15.410;2023-05-19T04:27:41;11.40;99.90
34095;DHT22;20372;47.080;15.410;2023-05-19T04:30:07;11.50;99.90
34095;DHT22;20372;47.080;15.410;2023-05-19T04:32:32;11.50;99.90
34095;DHT22;20372;47.080;15.410;2023-05-19T04:34:58;11.50;99.90
34095;DHT22;20372;47.080;15.410;2023-05-19T04:37:24;11.50;99.90
34095;DHT22;20372;47.080;15.410;2023-05-19T04:39:50;11.50;99.90
34095;DHT22;20372;47.080;15.410;2023-05-19T04:42:16;11.50;99.90
34095;DHT22;20372;47.080;15.410;2023-05-19T04:44:44;11.50;99.90
34095;DHT22;20372;47.080;15.410;2023-05-19T04:47:09;11.60;99.90
34095;DHT22;20372;47.080;15.410;2023-05-19T04:49:35;11.60;99.90
34095;DHT22;20372;47.080;15.410;2023-05-19T04:52:05;11.60;99.90
34095;DHT22;20372;47.080;15.410;2023-05-19T04:54:31;11.60;99.90
34095;DHT22;20372;47.080;15.410;2023-05-19T04:56:57;11.60;99.90
34095;DHT22;20372;47.080;15.410;2023-05-19T04:59:22;11.50;99.90
34095;DHT22;20372;47.080;15.410;2023-05-19T05:01:48;11.60;99.90
34095;DHT22;20372;47.080;15.410;2023-05-19T05:04:13;11.70;99.90
34095;DHT22;20372;47.080;15.410;2023-05-19T05:06:39;11.70;99.90
34095;DHT22;20372;47.080;15.410;2023-05-19T05:09:06;11.70;99.90
34095;DHT22;20372;47.080;15.410;2023-05-19T05:11:32;11.70;99.90
34095;DHT22;20372;47.080;15.410;2023-05-19T05:13:58;11.70;99.90
34095;DHT22;20372;47.080;15.410;2023-05-19T05:16:24;11.70;99.90
34095;DHT22;20372;47.080;15.410;2023-05-19T05:18:50;11.70;99.90
34095;DHT22;20372;47.080;15.410;2023-05-19T05:21:16;11.70;99.90
34095;DHT22;20372;47.080;15.410;2023-05-19T05:23:41;11.80;99.90
34095;DHT22;20372;47.080;15.410;2023-05-19T05:26:15;11.80;99.90
34095;DHT22;20372;47.080;15.410;2023-05-19T05:28:41;11.90;99.90
34095;DHT22;20372;47.080;15.410;2023-05-19T05:31:07;11.90;99.90
34095;DHT22;20372;47.080;15.410;2023-05-19T05:33:32;11.90;99.90
34095;DHT22;20372;47.080;15.410;2023-05-19T05:35:58;11.80;99.90
34095;DHT22;20372;47.080;15.410;2023-05-19T05:38:24;11.80;99.90
34095;DHT22;20372;47.080;15.410;2023-05-19T05:40:49;11.70;99.90
34095;DHT22;20372;47.080;15.410;2023-05-19T05:43:15;11.70;99.90
34095;DHT22;20372;47.080;15.410;2023-05-19T05:45:40;11.60;99.90
34095;DHT22;20372;47.080;15.410;2023-05-19T05:48:06;11.70;99.90
34095;DHT22;20372;47.080;15.410;2023-05-19T05:50:32;11.70;99.90
34095;DHT22;20372;47.080;15.410;2023-05-19T05:52:57;11.70;99.90
34095;DHT22;20372;47.080;15.410;2023-05-19T05:55:25;11.60;99.90
34095;DHT22;20372;47.080;15.410;2023-05-19T05:57:51;11.50;99.90
34095;DHT22;20372;47.080;15.410;2023-05-19T06:00:17;11.60;99.90
34095;DHT22;20372;47.080;15.410;2023-05-19T06:02:47;11.70;99.90
34095;DHT22;20372;47.080;15.410;2023-05-19T06:05:13;11.80;99.90
34095;DHT22;20372;47.080;15.410;2023-05-19T06:07:39;11.70;99.90
34095;DHT22;20372;47.080;15.410;2023-05-19T06:10:05;11.80;99.90
34095;DHT22;20372;47.080;15.410;2023-05-19T06:12:31;11.90;99.90
34095;DHT22;20372;47.080;15.410;2023-05-19T06:14:56;12.00;99.90
34095;DHT22;20372;47.080;15.410;2023-05-19T06:17:22;12.00;99.90
34095;DHT22;20372;47.080;15.410;2023-05-19T06:19:47;12.10;99.90
34095;DHT22;20372;47.080;15.410;2023-05-19T06:22:13;12.20;99.90
34095;DHT22;20372;47.080;15.410;2023-05-19T06:24:39;12.20;99.90
34095;DHT22;20372;47.080;15.410;2023-05-19T06:27:04;12.10;99.90
34095;DHT22;20372;47.080;15.410;2023-05-19T06:29:30;12.20;99.90
34095;DHT22;20372;47.080;15.410;2023-05-19T06:31:55;12.30;99.90
34095;DHT22;20372;47.080;15.410;2023-05-19T06:34:21;12.30;99.90
34095;DHT22;20372;47.080;15.410;2023-05-19T06:36:47;12.20;99.90
34095;DHT22;20372;47.080;15.410;2023-05-19T06:39:12;12.30;99.90
34095;DHT22;20372;47.080;15.410;2023-05-19T06:41:38;12.50;99.90
34095;DHT22;20372;47.080;15.410;2023-05-19T06:44:05;12.50;99.90
34095;DHT22;20372;47.080;15.410;2023-05-19T06:46:31;12.40;99.90
34095;DHT22;20372;47.080;15.410;2023-05-19T06:48:57;12.30;99.90
34095;DHT22;20372;47.080;15.410;2023-05-19T06:51:22;12.50;99.90
34095;DHT22;20372;47.080;15.410;2023-05-19T06:53:48;12.80;99.90
34095;DHT22;20372;47.080;15.410;2023-05-19T06:56:13;12.90;99.90
34095;DHT22;20372;47.080;15.410;2023-05-19T06:58:40;13.00;99.90
34095;DHT22;20372;47.080;15.410;2023-05-19T07:01:05;13.10;99.90
34095;DHT22;20372;47.080;15.410;2023-05-19T07:03:31;13.20;99.90
34095;DHT22;20372;47.080;15.410;2023-05-19T07:05:56;13.30;99.90
34095;DHT22;20372;47.080;15.410;2023-05-19T07:08:22;13.40;99.90
34095;DHT22;20372;47.080;15.410;2023-05-19T07:10:48;13.40;99.90
34095;DHT22;20372;47.080;15.410;2023-05-19T07:13:13;13.40;99.90
34095;DHT22;20372;47.080;15.410;2023-05-19T07:15:39;13.40;99.90
34095;DHT22;20372;47.080;15.410;2023-05-19T07:18:04;13.40;99.90
34095;DHT22;20372;47.080;15.410;2023-05-19T07:20:30;13.30;99.90
34095;DHT22;20372;47.080;15.410;2023-05-19T07:22:55;13.00;99.90
34095;DHT22;20372;47.080;15.410;2023-05-19T07:25:21;12.80;99.90
34095;DHT22;20372;47.080;15.410;2023-05-19T07:27:47;12.70;99.90
34095;DHT22;20372;47.080;15.410;2023-05-19T07:30:12;13.20;99.90
34095;DHT22;20372;47.080;15.410;2023-05-19T07:32:38;13.60;99.90
34095;DHT22;20372;47.080;15.410;2023-05-19T07:35:04;13.90;99.90
34095;DHT22;20372;47.080;15.410;2023-05-19T07:37:30;14.30;99.90
34095;DHT22;20372;47.080;15.410;2023-05-19T07:39:55;14.20;99.90
34095;DHT22;20372;47.080;15.410;2023-05-19T07:42:21;14.30;99.90
34095;DHT22;20372;47.080;15.410;2023-05-19T07:44:46;14.40;99.90
34095;DHT22;20372;47.080;15.410;2023-05-19T07:47:12;14.50;99.90
34095;DHT22;20372;47.080;15.410;2023-05-19T07:49:37;14.80;99.90
34095;DHT22;20372;47.080;15.410;2023-05-19T07:52:03;14.60;99.90
34095;DHT22;20372;47.080;15.410;2023-05-19T07:54:29;15.40;99.90
34095;DHT22;20372;47.080;15.410;2023-05-19T07:56:54;16.20;99.90
34095;DHT22;20372;47.080;15.410;2023-05-19T07:59:20;16.10;99.90
34095;DHT22;20372;47.080;15.410;2023-05-19T08:01:46;16.40;99.90
34095;DHT22;20372;47.080;15.410;2023-05-19T08:04:11;16.40;99.90
34095;DHT22;20372;47.080;15.410;2023-05-19T08:06:37;15.70;99.90
34095;DHT22;20372;47.080;15.410;2023-05-19T08:09:03;15.60;99.90
34095;DHT22;20372;47.080;15.410;2023-05-19T08:11:29;15.20;99.90
34095;DHT22;20372;47.080;15.410;2023-05-19T08:13:55;15.50;99.90
34095;DHT22;20372;47.080;15.410;2023-05-19T08:16:21;14.90;99.90
34095;DHT22;20372;47.080;15.410;2023-05-19T08:18:46;15.30;99.90
34095;DHT22;20372;47.080;15.410;2023-05-19T08:21:12;16.00;99.90
34095;DHT22;20372;47.080;15.410;2023-05-19T08:23:37;16.60;99.90
34095;DHT22;20372;47.080;15.410;2023-05-19T08:26:03;16.70;99.90
34095;DHT22;20372;47.080;15.410;2023-05-19T08:28:29;16.30;99.90
34095;DHT22;20372;47.080;15.410;2023-05-19T08:30:54;16.40;99.90
34095;DHT22;20372;47.080;15.410;2023-05-19T08:33:20;16.30;99.90
34095;DHT22;20372;47.080;15.410;2023-05-19T08:35:47;16.40;99.90
34095;DHT22;20372;47.080;15.410;2023-05-19T08:38:12;16.70;99.90
34095;DHT22;20372;47.080;15.410;2023-05-19T08:40:40;16.50;99.90
34095;DHT22;20372;47.080;15.410;2023-05-19T08:43:06;15.90;99.90
34095;DHT22;20372;47.080;15.410;2023-05-19T08:45:32;15.40;99.90
34095;DHT22;20372;47.080;15.410;2023-05-19T08:47:59;15.10;99.90
34095;DHT22;20372;47.080;15.410;2023-05-19T08:50:28;14.70;99.90
34095;DHT22;20372;47.080;15.410;2023-05-19T08:52:57;14.70;99.90
34095;DHT22;20372;47.080;15.410;2023-05-19T08:55:38;15.20;99.90
34095;DHT22;20372;47.080;15.410;2023-05-19T08:58:05;15.50;99.90
34095;DHT22;20372;47.080;15.410;2023-05-19T09:00:31;15.60;99.90
34095;DHT22;20372;47.080;15.410;2023-05-19T09:02:57;15.60;99.90
34095;DHT22;20372;47.080;15.410;2023-05-19T09:05:24;15.60;99.90
34095;DHT22;20372;47.080;15.410;2023-05-19T09:07:50;15.30;99.90
34095;DHT22;20372;47.080;15.410;2023-05-19T09:10:15;15.30;99.90
34095;DHT22;20372;47.080;15.410;2023-05-19T09:12:42;15.20;99.90
34095;DHT22;20372;47.080;15.410;2023-05-19T09:15:09;15.50;99.90
34095;DHT22;20372;47.080;15.410;2023-05-19T09:17:36;16.00;99.90
34095;DHT22;20372;47.080;15.410;2023-05-19T09:20:02;16.40;99.90
34095;DHT22;20372;47.080;15.410;2023-05-19T09:22:30;16.40;99.90
34095;DHT22;20372;47.080;15.410;2023-05-19T09:24:59;16.40;99.90
34095;DHT22;20372;47.080;15.410;2023-05-19T09:27:25;16.20;99.90
34095;DHT22;20372;47.080;15.410;2023-05-19T09:29:51;16.60;99.90
34095;DHT22;20372;47.080;15.410;2023-05-19T09:32:25;16.00;99.90
34095;DHT22;20372;47.080;15.410;2023-05-19T09:34:52;15.80;99.90
34095;DHT22;20372;47.080;15.410;2023-05-19T09:37:21;15.90;99.90
34095;DHT22;20372;47.080;15.410;2023-05-19T09:39:46;16.60;99.90
34095;DHT22;20372;47.080;15.410;2023-05-19T09:42:16;16.00;99.90
34095;DHT22;20372;47.080;15.410;2023-05-19T09:44:48;17.40;99.90
34095;DHT22;20372;47.080;15.410;2023-05-19T09:47:15;18.20;99.90
34095;DHT22;20372;47.080;15.410;2023-05-19T09:49:44;18.40;98.50
34095;DHT22;20372;47.080;15.410;2023-05-19T09:52:13;18.60;99.90
34095;DHT22;20372;47.080;15.410;2023-05-19T09:54:40;18.20;97.60
34095;DHT22;20372;47.080;15.410;2023-05-19T09:57:06;17.30;97.80
34095;DHT22;20372;47.080;15.410;2023-05-19T09:59:32;16.70;99.90
34095;DHT22;20372;47.080;15.410;2023-05-19T10:01:59;17.10;99.90
34095;DHT22;20372;47.080;15.410;2023-05-19T10:04:25;17.30;99.90
34095;DHT22;20372;47.080;15.410;2023-05-19T10:06:52;17.50;99.90
34095;DHT22;20372;47.080;15.410;2023-05-19T10:09:24;17.20;99.90
34095;DHT22;20372;47.080;15.410;2023-05-19T10:11:54;17.30;99.90
34095;DHT22;20372;47.080;15.410;2023-05-19T10:14:23;17.20;99.90
34095;DHT22;20372;47.080;15.410;2023-05-19T10:16:50;16.60;99.90
34095;DHT22;20372;47.080;15.410;2023-05-19T10:19:17;16.80;99.90
34095;DHT22;20372;47.080;15.410;2023-05-19T10:21:45;16.70;99.90
34095;DHT22;20372;47.080;15.410;2023-05-19T10:24:10;16.80;99.90
34095;DHT22;20372;47.080;15.410;2023-05-19T10:26:36;17.30;99.00
34095;DHT22;20372;47.080;15.410;2023-05-19T10:29:03;17.80;99.90
34095;DHT22;20372;47.080;15.410;2023-05-19T10:31:29;18.00;98.70
34095;DHT22;20372;47.080;15.410;2023-05-19T10:36:51;17.90;99.90
34095;DHT22;20372;47.080;15.410;2023-05-19T10:39:31;18.30;99.90
34095;DHT22;20372;47.080;15.410;2023-05-19T10:46:59;17.20;99.90
34095;DHT22;20372;47.080;15.410;2023-05-19T10:49:24;17.20;99.90
34095;DHT22;20372;47.080;15.410;2023-05-19T10:51:56;17.60;99.90
34095;DHT22;20372;47.080;15.410;2023-05-19T10:57:07;16.80;98.90
34095;DHT22;20372;47.080;15.410;2023-05-19T10:59:34;16.90;99.90
34095;DHT22;20372;47.080;15.410;2023-05-19T11:02:05;17.00;99.90
34095;DHT22;20372;47.080;15.410;2023-05-19T11:04:48;17.10;99.90
34095;DHT22;20372;47.080;15.410;2023-05-19T11:07:18;17.40;99.90
34095;DHT22;20372;47.080;15.410;2023-05-19T11:09:47;17.70;99.90
34095;DHT22;20372;47.080;15.410;2023-05-19T11:12:14;17.00;97.70
34095;DHT22;20372;47.080;15.410;2023-05-19T11:14:44;16.70;99.50
34095;DHT22;20372;47.080;15.410;2023-05-19T11:17:13;16.80;98.20
34095;DHT22;20372;47.080;15.410;2023-05-19T11:19:39;17.50;99.90
34095;DHT22;20372;47.080;15.410;2023-05-19T11:22:16;17.70;97.60
34095;DHT22;20372;47.080;15.410;2023-05-19T11:27:25;18.50;98.40
34095;DHT22;20372;47.080;15.410;2023-05-19T11:29:56;18.00;95.30
34095;DHT22;20372;47.080;15.410;2023-05-19T11:32:27;18.50;99.60
34095;DHT22;20372;47.080;15.410;2023-05-19T11:34:54;18.90;99.90
34095;DHT22;20372;47.080;15.410;2023-05-19T11:37:20;18.80;96.80
34095;DHT22;20372;47.080;15.410;2023-05-19T11:39:46;18.80;98.50
34095;DHT22;20372;47.080;15.410;2023-05-19T11:42:11;17.70;96.60
34095;DHT22;20372;47.080;15.410;2023-05-19T11:44:37;18.10;99.90
34095;DHT22;20372;47.080;15.410;2023-05-19T11:47:05;18.30;97.40
34095;DHT22;20372;47.080;15.410;2023-05-19T11:49:31;18.30;98.30
34095;DHT22;20372;47.080;15.410;2023-05-19T11:51:58;18.30;96.30
34095;DHT22;20372;47.080;15.410;2023-05-19T11:54:28;18.30;95.30
34095;DHT22;20372;47.080;15.410;2023-05-19T11:56:54;18.20;96.30
34095;DHT22;20372;47.080;15.410;2023-05-19T11:59:27;18.30;98.80
34095;DHT22;20372;47.080;15.410;2023-05-19T12:01:53;18.40;98.20
34095;DHT22;20372;47.080;15.410;2023-05-19T12:04:19;18.40;97.00
34095;DHT22;20372;47.080;15.410;2023-05-19T12:06:45;18.80;98.10
34095;DHT22;20372;47.080;15.410;2023-05-19T12:09:12;19.10;95.30
34095;DHT22;20372;47.080;15.410;2023-05-19T12:11:38;18.60;94.80
34095;DHT22;20372;47.080;15.410;2023-05-19T12:14:04;18.10;94.20
34095;DHT22;20372;47.080;15.410;2023-05-19T12:16:33;18.20;96.10
34095;DHT22;20372;47.080;15.410;2023-05-19T12:19:00;18.40;93.80
34095;DHT22;20372;47.080;15.410;2023-05-19T12:21:25;19.00;95.80
34095;DHT22;20372;47.080;15.410;2023-05-19T12:23:51;19.10;92.60
34095;DHT22;20372;47.080;15.410;2023-05-19T12:26:17;19.40;95.60
34095;DHT22;20372;47.080;15.410;2023-05-19T12:28:44;18.90;93.00
34095;DHT22;20372;47.080;15.410;2023-05-19T12:31:10;18.60;93.60
34095;DHT22;20372;47.080;15.410;2023-05-19T12:33:36;18.20;94.10
34095;DHT22;20372;47.080;15.410;2023-05-19T12:36:01;18.40;97.40
34095;DHT22;20372;47.080;15.410;2023-05-19T12:38:27;18.50;95.50
34095;DHT22;20372;47.080;15.410;2023-05-19T12:40:52;18.60;97.60
34095;DHT22;20372;47.080;15.410;2023-05-19T12:43:22;18.90;95.50
34095;DHT22;20372;47.080;15.410;2023-05-19T12:45:48;19.00;93.30
34095;DHT22;20372;47.080;15.410;2023-05-19T12:48:14;18.90;93.10
34095;DHT22;20372;47.080;15.410;2023-05-19T12:50:41;19.00;94.20
34095;DHT22;20372;47.080;15.410;2023-05-19T12:53:07;19.30;95.80
34095;DHT22;20372;47.080;15.410;2023-05-19T12:55:42;19.10;93.80
34095;DHT22;20372;47.080;15.410;2023-05-19T12:58:09;18.90;92.30
34095;DHT22;20372;47.080;15.410;2023-05-19T13:00:42;19.00;95.20
34095;DHT22;20372;47.080;15.410;2023-05-19T13:03:15;19.30;95.90
34095;DHT22;20372;47.080;15.410;2023-05-19T13:05:42;19.20;93.10
34095;DHT22;20372;47.080;15.410;2023-05-19T13:08:09;18.50;92.90
34095;DHT22;20372;47.080;15.410;2023-05-19T13:10:36;18.10;93.90
34095;DHT22;20372;47.080;15.410;2023-05-19T13:13:02;18.70;97.00
34095;DHT22;20372;47.080;15.410;2023-05-19T13:15:28;18.90;96.40
34095;DHT22;20372;47.080;15.410;2023-05-19T13:18:02;19.30;94.80
34095;DHT22;20372;47.080;15.410;2023-05-19T13:20:28;19.20;93.40
34095;DHT22;20372;47.080;15.410;2023-05-19T13:22:54;19.30;93.90
34095;DHT22;20372;47.080;15.410;2023-05-19T13:25:20;19.50;94.00
34095;DHT22;20372;47.080;15.410;2023-05-19T13:27:46;19.20;92.50
34095;DHT22;20372;47.080;15.410;2023-05-19T13:30:12;18.80;92.80
34095;DHT22;20372;47.080;15.410;2023-05-19T13:32:40;19.20;95.90
34095;DHT22;20372;47.080;15.410;2023-05-19T13:35:05;19.30;94.60
34095;DHT22;20372;47.080;15.410;2023-05-19T13:37:31;19.20;94.50
34095;DHT22;20372;47.080;15.410;2023-05-19T13:39:57;19.20;93.30
34095;DHT22;20372;47.080;15.410;2023-05-19T13:42:22;19.20;95.30
34095;DHT22;20372;47.080;15.410;2023-05-19T13:44:48;19.30;95.70
34095;DHT22;20372;47.080;15.410;2023-05-19T13:47:14;19.40;96.40
34095;DHT22;20372;47.080;15.410;2023-05-19T13:49:40;19.40;94.00
34095;DHT22;20372;47.080;15.410;2023-05-19T13:52:06;19.00;93.10
34095;DHT22;20372;47.080;15.410;2023-05-19T13:54:32;19.20;95.00
34095;DHT22;20372;47.080;15.410;2023-05-19T13:56:58;19.50;95.00
34095;DHT22;20372;47.080;15.410;2023-05-19T13:59:27;19.50;93.10
34095;DHT22;20372;47.080;15.410;2023-05-19T14:01:52;19.40;92.40
34095;DHT22;20372;47.080;15.410;2023-05-19T14:04:18;19.40;95.40
34095;DHT22;20372;47.080;15.410;2023-05-19T14:06:44;19.00;92.60
34095;DHT22;20372;47.080;15.410;2023-05-19T14:09:10;19.00;93.10
34095;DHT22;20372;47.080;15.410;2023-05-19T14:11:36;19.20;93.70
34095;DHT22;20372;47.080;15.410;2023-05-19T14:14:01;18.80;92.40
34095;DHT22;20372;47.080;15.410;2023-05-19T14:16:28;18.60;93.50
34095;DHT22;20372;47.080;15.410;2023-05-19T14:18:53;19.00;95.90
34095;DHT22;20372;47.080;15.410;2023-05-19T14:21:19;19.20;94.10
34095;DHT22;20372;47.080;15.410;2023-05-19T14:23:45;19.30;95.50
34095;DHT22;20372;47.080;15.410;2023-05-19T14:26:10;19.50;96.20
34095;DHT22;20372;47.080;15.410;2023-05-19T14:28:36;19.40;93.50
34095;DHT22;20372;47.080;15.410;2023-05-19T14:31:01;19.40;93.90
34095;DHT22;20372;47.080;15.410;2023-05-19T14:33:27;19.20;93.80
34095;DHT22;20372;47.080;15.410;2023-05-19T14:35:52;18.80;92.70
34095;DHT22;20372;47.080;15.410;2023-05-19T14:38:19;18.40;94.10
34095;DHT22;20372;47.080;15.410;2023-05-19T14:40:45;18.30;93.40
34095;DHT22;20372;47.080;15.410;2023-05-19T14:43:12;18.40;96.40
34095;DHT22;20372;47.080;15.410;2023-05-19T14:45:38;18.30;96.10
34095;DHT22;20372;47.080;15.410;2023-05-19T14:48:06;18.20;96.10
34095;DHT22;20372;47.080;15.410;2023-05-19T14:50:32;18.10;95.70
34095;DHT22;20372;47.080;15.410;2023-05-19T14:52:57;18.10;96.80
34095;DHT22;20372;47.080;15.410;2023-05-19T14:55:23;18.00;98.50
34095;DHT22;20372;47.080;15.410;2023-05-19T14:57:48;17.90;95.60
34095;DHT22;20372;47.080;15.410;2023-05-19T15:00:15;18.00;95.70
34095;DHT22;20372;47.080;15.410;2023-05-19T15:02:42;18.00;94.50
34095;DHT22;20372;47.080;15.410;2023-05-19T15:05:07;17.90;95.20
34095;DHT22;20372;47.080;15.410;2023-05-19T15:07:33;18.00;96.90
34095;DHT22;20372;47.080;15.410;2023-05-19T15:09:59;18.10;99.20
34095;DHT22;20372;47.080;15.410;2023-05-19T15:12:25;18.20;98.90
34095;DHT22;20372;47.080;15.410;2023-05-19T15:14:53;18.10;96.40
34095;DHT22;20372;47.080;15.410;2023-05-19T15:17:18;17.70;95.80
34095;DHT22;20372;47.080;15.410;2023-05-19T15:19:44;17.90;97.60
34095;DHT22;20372;47.080;15.410;2023-05-19T15:22:10;18.00;97.10
34095;DHT22;20372;47.080;15.410;2023-05-19T15:24:35;18.20;98.10
34095;DHT22;20372;47.080;15.410;2023-05-19T15:27:01;18.00;96.70
34095;DHT22;20372;47.080;15.410;2023-05-19T15:29:27;18.10;98.10
34095;DHT22;20372;47.080;15.410;2023-05-19T15:31:52;18.10;99.40
34095;DHT22;20372;47.080;15.410;2023-05-19T15:34:18;18.20;96.80
34095;DHT22;20372;47.080;15.410;2023-05-19T15:36:45;18.20;97.00
34095;DHT22;20372;47.080;15.410;2023-05-19T15:39:11;18.20;96.00
34095;DHT22;20372;47.080;15.410;2023-05-19T15:41:36;18.10;95.70